sensor_id;sensor_type;location;lat;lon;timestamp;pressure;altitude;pressure_sealevel;temperature;humidity
4981;BME280;2507;50.392;7.482;2024-01-07T00:00:35;100590.88;;;4.78;76.38
4981;BME280;2507;50.392;7.482;2024-01-07T00:03:00;100595.00;;;4.82;76.29
4981;BME280;2507;50.392;7.482;2024-01-07T00:05:25;100597.31;;;4.88;76.17
4981;BME280;2507;50.392;7.482;2024-01-07T00:07:51;100599.00;;;4.89;75.86
4981;BME280;2507;50.392;7.482;2024-01-07T00:10:16;100596.19;;;4.94;75.85
4981;BME280;2507;50.392;7.482;2024-01-07T00:12:42;100605.91;;;4.90;76.01
4981;BME280;2507;50.392;7.482;2024-01-07T00:15:07;100597.50;;;4.85;75.79
4981;BME280;2507;50.392;7.482;2024-01-07T00:17:32;100603.44;;;4.87;75.77
4981;BME280;2507;50.392;7.482;2024-01-07T00:19:58;100606.81;;;4.89;76.04
4981;BME280;2507;50.392;7.482;2024-01-07T00:22:23;100606.50;;;4.95;75.93
4981;BME280;2507;50.392;7.482;2024-01-07T00:24:48;100611.03;;;4.92;75.92
4981;BME280;2507;50.392;7.482;2024-01-07T00:27:13;100614.47;;;4.92;75.82
4981;BME280;2507;50.392;7.482;2024-01-07T00:29:39;100623.75;;;4.98;75.78
4981;BME280;2507;50.392;7.482;2024-01-07T00:32:04;100614.53;;;4.91;75.95
4981;BME280;2507;50.392;7.482;2024-01-07T00:34:29;100614.59;;;4.89;75.74
4981;BME280;2507;50.392;7.482;2024-01-07T00:36:55;100612.00;;;4.89;75.95
4981;BME280;2507;50.392;7.482;2024-01-07T00:39:21;100611.09;;;4.90;75.20
4981;BME280;2507;50.392;7.482;2024-01-07T00:41:46;100618.28;;;4.85;75.32
4981;BME280;2507;50.392;7.482;2024-01-07T00:44:11;100620.88;;;4.85;75.97
4981;BME280;2507;50.392;7.482;2024-01-07T00:46:38;100624.03;;;4.92;75.47
4981;BME280;2507;50.392;7.482;2024-01-07T00:49:03;100629.22;;;4.92;75.13
4981;BME280;2507;50.392;7.482;2024-01-07T00:51:28;100631.91;;;4.90;75.06
4981;BME280;2507;50.392;7.482;2024-01-07T00:53:53;100636.31;;;4.88;74.89
4981;BME280;2507;50.392;7.482;2024-01-07T00:56:19;100647.56;;;4.89;74.97
4981;BME280;2507;50.392;7.482;2024-01-07T00:58:44;100632.94;;;4.86;75.42
4981;BME280;2507;50.392;7.482;2024-01-07T01:01:09;100644.19;;;4.87;75.12
4981;BME280;2507;50.392;7.482;2024-01-07T01:03:34;100637.88;;;4.92;76.70
4981;BME280;2507;50.392;7.482;2024-01-07T01:06:00;100633.28;;;4.97;76.29
4981;BME280;2507;50.392;7.482;2024-01-07T01:08:25;100633.56;;;4.91;76.35
4981;BME280;2507;50.392;7.482;2024-01-07T01:10:50;100642.28;;;4.90;76.12
4981;BME280;2507;50.392;7.482;2024-01-07T01:13:15;100633.50;;;4.93;75.85
4981;BME280;2507;50.392;7.482;2024-01-07T01:15:41;100642.75;;;4.98;75.49
4981;BME280;2507;50.392;7.482;2024-01-07T01:18:06;100649.50;;;5.02;75.13
4981;BME280;2507;50.392;7.482;2024-01-07T01:20:31;100652.97;;;5.03;75.46
4981;BME280;2507;50.392;7.482;2024-01-07T01:22:56;100648.88;;;4.97;75.23
4981;BME280;2507;50.392;7.482;2024-01-07T01:25:22;100652.09;;;5.02;74.79
4981;BME280;2507;50.392;7.482;2024-01-07T01:27:47;100655.31;;;5.07;75.11
4981;BME280;2507;50.392;7.482;2024-01-07T01:30:12;100654.25;;;5.11;75.49
4981;BME280;2507;50.392;7.482;2024-01-07T01:32:39;100659.19;;;5.17;75.40
4981;BME280;2507;50.392;7.482;2024-01-07T01:35:05;100654.84;;;5.18;74.72
4981;BME280;2507;50.392;7.482;2024-01-07T01:37:30;100662.91;;;5.12;74.55
4981;BME280;2507;50.392;7.482;2024-01-07T01:39:58;100664.06;;;5.06;75.58
4981;BME280;2507;50.392;7.482;2024-01-07T01:42:23;100664.66;;;5.11;75.54
4981;BME280;2507;50.392;7.482;2024-01-07T01:44:48;100668.81;;;5.15;75.09
4981;BME280;2507;50.392;7.482;2024-01-07T01:47:14;100672.34;;;5.14;75.48
4981;BME280;2507;50.392;7.482;2024-01-07T01:49:39;100670.66;;;5.13;75.26
4981;BME280;2507;50.392;7.482;2024-01-07T01:52:05;100674.22;;;5.11;75.98
4981;BME280;2507;50.392;7.482;2024-01-07T01:54:30;100675.59;;;5.01;74.46
4981;BME280;2507;50.392;7.482;2024-01-07T01:56:56;100685.13;;;5.00;75.10
4981;BME280;2507;50.392;7.482;2024-01-07T01:59:22;100683.88;;;4.90;75.44
4981;BME280;2507;50.392;7.482;2024-01-07T02:01:48;100683.38;;;4.82;76.17
4981;BME280;2507;50.392;7.482;2024-01-07T02:04:14;100679.13;;;4.81;76.43
4981;BME280;2507;50.392;7.482;2024-01-07T02:06:40;100675.38;;;4.87;75.91
4981;BME280;2507;50.392;7.482;2024-01-07T02:09:05;100685.63;;;4.90;77.38
4981;BME280;2507;50.392;7.482;2024-01-07T02:11:30;100679.38;;;4.94;77.18
4981;BME280;2507;50.392;7.482;2024-01-07T02:13:56;100675.03;;;4.94;77.28
4981;BME280;2507;50.392;7.482;2024-01-07T02:16:21;100683.75;;;4.93;76.82
4981;BME280;2507;50.392;7.482;2024-01-07T02:18:46;100685.28;;;4.97;76.96
4981;BME280;2507;50.392;7.482;2024-01-07T02:21:15;100685.22;;;4.99;76.83
4981;BME280;2507;50.392;7.482;2024-01-07T02:23:40;100687.81;;;4.99;76.05
4981;BME280;2507;50.392;7.482;2024-01-07T02:26:06;100677.06;;;4.88;76.04
4981;BME280;2507;50.392;7.482;2024-01-07T02:28:32;100676.09;;;4.90;76.23
4981;BME280;2507;50.392;7.482;2024-01-07T02:30:57;100684.78;;;4.89;76.47
4981;BME280;2507;50.392;7.482;2024-01-07T02:33:23;100683.13;;;4.88;76.34
4981;BME280;2507;50.392;7.482;2024-01-07T02:35:48;100685.00;;;4.85;75.89
4981;BME280;2507;50.392;7.482;2024-01-07T02:38:13;100686.56;;;4.89;75.53
4981;BME280;2507;50.392;7.482;2024-01-07T02:40:38;100687.09;;;4.95;76.04
4981;BME280;2507;50.392;7.482;2024-01-07T02:43:04;100683.75;;;4.93;75.72
4981;BME280;2507;50.392;7.482;2024-01-07T02:45:29;100681.06;;;4.95;76.10
4981;BME280;2507;50.392;7.482;2024-01-07T02:47:54;100686.97;;;4.98;75.91
4981;BME280;2507;50.392;7.482;2024-01-07T02:50:20;100686.06;;;4.99;75.56
4981;BME280;2507;50.392;7.482;2024-01-07T02:52:45;100678.38;;;4.96;75.98
4981;BME280;2507;50.392;7.482;2024-01-07T02:55:10;100688.03;;;4.94;75.72
4981;BME280;2507;50.392;7.482;2024-01-07T02:57:35;100677.75;;;4.91;75.51
4981;BME280;2507;50.392;7.482;2024-01-07T03:00:01;100688.66;;;4.99;75.99
4981;BME280;2507;50.392;7.482;2024-01-07T03:02:26;100685.19;;;5.17;75.30
4981;BME280;2507;50.392;7.482;2024-01-07T03:04:51;100690.16;;;5.22;74.84
4981;BME280;2507;50.392;7.482;2024-01-07T03:07:16;100688.69;;;5.16;75.09
4981;BME280;2507;50.392;7.482;2024-01-07T03:09:42;100683.81;;;5.10;75.02
4981;BME280;2507;50.392;7.482;2024-01-07T03:12:07;100681.38;;;5.25;75.17
4981;BME280;2507;50.392;7.482;2024-01-07T03:14:33;100687.97;;;5.32;74.64
4981;BME280;2507;50.392;7.482;2024-01-07T03:16:58;100700.28;;;5.28;74.45
4981;BME280;2507;50.392;7.482;2024-01-07T03:19:23;100698.03;;;5.20;73.92
4981;BME280;2507;50.392;7.482;2024-01-07T03:21:49;100702.19;;;5.25;74.58
4981;BME280;2507;50.392;7.482;2024-01-07T03:24:14;100693.75;;;5.38;74.90
4981;BME280;2507;50.392;7.482;2024-01-07T03:26:39;100701.16;;;5.46;73.86
4981;BME280;2507;50.392;7.482;2024-01-07T03:29:05;100706.06;;;5.52;73.79
4981;BME280;2507;50.392;7.482;2024-01-07T03:31:30;100694.59;;;5.56;72.89
4981;BME280;2507;50.392;7.482;2024-01-07T03:33:55;100697.72;;;5.45;73.68
4981;BME280;2507;50.392;7.482;2024-01-07T03:36:21;100698.19;;;5.53;73.15
4981;BME280;2507;50.392;7.482;2024-01-07T03:38:46;100699.72;;;5.57;73.13
4981;BME280;2507;50.392;7.482;2024-01-07T03:41:18;100692.66;;;5.42;73.05
4981;BME280;2507;50.392;7.482;2024-01-07T03:43:45;100708.69;;;5.33;73.44
4981;BME280;2507;50.392;7.482;2024-01-07T03:46:11;100706.94;;;5.34;73.68
4981;BME280;2507;50.392;7.482;2024-01-07T03:48:36;100707.16;;;5.29;73.66
4981;BME280;2507;50.392;7.482;2024-01-07T03:51:02;100710.84;;;5.25;74.22
4981;BME280;2507;50.392;7.482;2024-01-07T03:53:27;100711.03;;;5.20;73.70
4981;BME280;2507;50.392;7.482;2024-01-07T03:55:52;100710.28;;;5.18;74.78
4981;BME280;2507;50.392;7.482;2024-01-07T03:58:17;100714.56;;;5.19;74.12
4981;BME280;2507;50.392;7.482;2024-01-07T04:00:43;100710.97;;;5.22;74.01
4981;BME280;2507;50.392;7.482;2024-01-07T04:03:08;100711.28;;;5.16;73.64
4981;BME280;2507;50.392;7.482;2024-01-07T04:05:33;100710.28;;;5.18;73.44
4981;BME280;2507;50.392;7.482;2024-01-07T04:08:02;100715.34;;;5.22;73.66
4981;BME280;2507;50.392;7.482;2024-01-07T04:10:27;100718.72;;;5.24;73.41
4981;BME280;2507;50.392;7.482;2024-01-07T04:12:52;100718.41;;;5.30;73.41
4981;BME280;2507;50.392;7.482;2024-01-07T04:15:18;100717.97;;;5.39;73.38
4981;BME280;2507;50.392;7.482;2024-01-07T04:17:43;100726.09;;;5.33;73.26
4981;BME280;2507;50.392;7.482;2024-01-07T04:20:12;100721.69;;;5.52;72.65
4981;BME280;2507;50.392;7.482;2024-01-07T04:22:38;100732.59;;;5.41;71.70
4981;BME280;2507;50.392;7.482;2024-01-07T04:25:04;100737.97;;;5.38;72.85
4981;BME280;2507;50.392;7.482;2024-01-07T04:27:30;100734.97;;;5.46;73.23
4981;BME280;2507;50.392;7.482;2024-01-07T04:29:55;100735.22;;;5.58;72.55
4981;BME280;2507;50.392;7.482;2024-01-07T04:32:20;100737.63;;;5.63;72.14
4981;BME280;2507;50.392;7.482;2024-01-07T04:34:46;100742.69;;;5.66;72.05
4981;BME280;2507;50.392;7.482;2024-01-07T04:37:11;100735.22;;;5.58;72.05
4981;BME280;2507;50.392;7.482;2024-01-07T04:39:36;100748.41;;;5.55;72.33
4981;BME280;2507;50.392;7.482;2024-01-07T04:42:02;100748.31;;;5.57;72.53
4981;BME280;2507;50.392;7.482;2024-01-07T04:44:27;100746.94;;;5.50;72.29
4981;BME280;2507;50.392;7.482;2024-01-07T04:46:53;100755.94;;;5.43;72.58
4981;BME280;2507;50.392;7.482;2024-01-07T04:49:18;100755.19;;;5.41;72.47
4981;BME280;2507;50.392;7.482;2024-01-07T04:51:43;100747.22;;;5.44;72.44
4981;BME280;2507;50.392;7.482;2024-01-07T04:54:08;100759.91;;;5.33;72.34
4981;BME280;2507;50.392;7.482;2024-01-07T04:56:34;100762.72;;;5.28;72.71
4981;BME280;2507;50.392;7.482;2024-01-07T04:58:59;100761.44;;;5.37;72.63
4981;BME280;2507;50.392;7.482;2024-01-07T05:01:24;100761.66;;;5.32;73.27
4981;BME280;2507;50.392;7.482;2024-01-07T05:03:49;100761.38;;;5.38;72.95
4981;BME280;2507;50.392;7.482;2024-01-07T05:06:15;100766.16;;;5.29;71.99
4981;BME280;2507;50.392;7.482;2024-01-07T05:08:41;100769.91;;;5.23;72.80
4981;BME280;2507;50.392;7.482;2024-01-07T05:11:06;100772.34;;;5.26;72.55
4981;BME280;2507;50.392;7.482;2024-01-07T05:13:32;100774.88;;;5.28;72.63
4981;BME280;2507;50.392;7.482;2024-01-07T05:15:57;100780.84;;;5.30;72.67
4981;BME280;2507;50.392;7.482;2024-01-07T05:18:23;100786.47;;;5.20;72.91
4981;BME280;2507;50.392;7.482;2024-01-07T05:20:49;100779.03;;;5.32;72.50
4981;BME280;2507;50.392;7.482;2024-01-07T05:23:15;100794.28;;;5.20;72.63
4981;BME280;2507;50.392;7.482;2024-01-07T05:25:42;100790.34;;;5.12;73.35
4981;BME280;2507;50.392;7.482;2024-01-07T05:28:07;100794.34;;;5.19;73.20
4981;BME280;2507;50.392;7.482;2024-01-07T05:30:32;100802.16;;;5.19;73.68
4981;BME280;2507;50.392;7.482;2024-01-07T05:32:58;100798.63;;;5.20;74.30
4981;BME280;2507;50.392;7.482;2024-01-07T05:35:23;100795.06;;;5.22;73.63
4981;BME280;2507;50.392;7.482;2024-01-07T05:37:48;100790.97;;;5.17;73.97
4981;BME280;2507;50.392;7.482;2024-01-07T05:40:13;100797.22;;;5.13;74.83
4981;BME280;2507;50.392;7.482;2024-01-07T05:42:39;100794.97;;;5.05;74.57
4981;BME280;2507;50.392;7.482;2024-01-07T05:45:04;100800.31;;;5.02;74.85
4981;BME280;2507;50.392;7.482;2024-01-07T05:47:29;100807.34;;;5.00;75.38
4981;BME280;2507;50.392;7.482;2024-01-07T05:49:55;100809.03;;;5.01;75.03
4981;BME280;2507;50.392;7.482;2024-01-07T05:52:20;100809.81;;;5.03;74.83
4981;BME280;2507;50.392;7.482;2024-01-07T05:54:46;100815.91;;;5.02;75.15
4981;BME280;2507;50.392;7.482;2024-01-07T05:57:12;100819.81;;;5.12;75.33
4981;BME280;2507;50.392;7.482;2024-01-07T05:59:37;100813.75;;;5.12;74.96
4981;BME280;2507;50.392;7.482;2024-01-07T06:02:02;100817.22;;;5.12;75.05
4981;BME280;2507;50.392;7.482;2024-01-07T06:04:28;100827.88;;;5.06;75.21
4981;BME280;2507;50.392;7.482;2024-01-07T06:06:53;100826.16;;;5.05;75.03
4981;BME280;2507;50.392;7.482;2024-01-07T06:09:19;100832.44;;;5.01;75.04
4981;BME280;2507;50.392;7.482;2024-01-07T06:11:44;100830.09;;;4.95;74.91
4981;BME280;2507;50.392;7.482;2024-01-07T06:14:09;100831.22;;;4.90;74.93
4981;BME280;2507;50.392;7.482;2024-01-07T06:16:34;100829.81;;;4.83;75.01
4981;BME280;2507;50.392;7.482;2024-01-07T06:19:00;100832.47;;;4.81;74.84
4981;BME280;2507;50.392;7.482;2024-01-07T06:21:25;100829.00;;;4.81;75.59
4981;BME280;2507;50.392;7.482;2024-01-07T06:23:50;100835.19;;;4.78;75.41
4981;BME280;2507;50.392;7.482;2024-01-07T06:26:15;100848.69;;;4.86;75.65
4981;BME280;2507;50.392;7.482;2024-01-07T06:28:41;100847.66;;;4.90;75.45
4981;BME280;2507;50.392;7.482;2024-01-07T06:31:06;100852.97;;;4.87;75.90
4981;BME280;2507;50.392;7.482;2024-01-07T06:33:32;100853.06;;;4.86;75.34
4981;BME280;2507;50.392;7.482;2024-01-07T06:35:57;100858.78;;;4.74;75.59
4981;BME280;2507;50.392;7.482;2024-01-07T06:38:22;100860.69;;;4.70;76.60
4981;BME280;2507;50.392;7.482;2024-01-07T06:40:48;100862.63;;;4.65;76.08
4981;BME280;2507;50.392;7.482;2024-01-07T06:43:14;100866.34;;;4.80;75.82
4981;BME280;2507;50.392;7.482;2024-01-07T06:45:39;100873.41;;;4.76;75.92
4981;BME280;2507;50.392;7.482;2024-01-07T06:48:05;100871.72;;;4.75;76.35
4981;BME280;2507;50.392;7.482;2024-01-07T06:50:30;100871.06;;;4.70;75.83
4981;BME280;2507;50.392;7.482;2024-01-07T06:52:55;100882.25;;;4.72;76.13
4981;BME280;2507;50.392;7.482;2024-01-07T06:55:21;100879.38;;;4.78;75.96
4981;BME280;2507;50.392;7.482;2024-01-07T06:57:47;100884.56;;;4.78;75.86
4981;BME280;2507;50.392;7.482;2024-01-07T07:00:12;100889.00;;;4.76;75.47
4981;BME280;2507;50.392;7.482;2024-01-07T07:02:38;100889.25;;;4.70;75.97
4981;BME280;2507;50.392;7.482;2024-01-07T07:05:03;100897.84;;;4.92;75.34
4981;BME280;2507;50.392;7.482;2024-01-07T07:07:28;100895.34;;;4.89;75.12
4981;BME280;2507;50.392;7.482;2024-01-07T07:09:54;100899.72;;;4.89;74.88
4981;BME280;2507;50.392;7.482;2024-01-07T07:12:19;100905.75;;;4.89;75.04
4981;BME280;2507;50.392;7.482;2024-01-07T07:14:44;100907.56;;;4.87;74.73
4981;BME280;2507;50.392;7.482;2024-01-07T07:17:10;100908.88;;;4.97;74.90
4981;BME280;2507;50.392;7.482;2024-01-07T07:19:35;100919.69;;;4.88;74.72
4981;BME280;2507;50.392;7.482;2024-01-07T07:22:00;100919.53;;;4.91;74.63
4981;BME280;2507;50.392;7.482;2024-01-07T07:24:26;100923.00;;;4.92;74.92
4981;BME280;2507;50.392;7.482;2024-01-07T07:26:51;100919.06;;;4.82;73.94
4981;BME280;2507;50.392;7.482;2024-01-07T07:29:16;100927.78;;;4.81;74.25
4981;BME280;2507;50.392;7.482;2024-01-07T07:31:42;100923.56;;;4.78;73.09
4981;BME280;2507;50.392;7.482;2024-01-07T07:34:09;100927.72;;;4.82;73.11
4981;BME280;2507;50.392;7.482;2024-01-07T07:36:34;100926.75;;;4.85;73.14
4981;BME280;2507;50.392;7.482;2024-01-07T07:38:59;100930.22;;;4.85;72.91
4981;BME280;2507;50.392;7.482;2024-01-07T07:41:25;100946.13;;;4.78;73.48
4981;BME280;2507;50.392;7.482;2024-01-07T07:43:50;100943.94;;;4.67;73.81
4981;BME280;2507;50.392;7.482;2024-01-07T07:46:15;100946.50;;;4.69;73.98
4981;BME280;2507;50.392;7.482;2024-01-07T07:48:41;100954.09;;;4.73;73.60
4981;BME280;2507;50.392;7.482;2024-01-07T07:51:06;100956.78;;;4.72;73.55
4981;BME280;2507;50.392;7.482;2024-01-07T07:53:32;100964.88;;;4.64;74.02
4981;BME280;2507;50.392;7.482;2024-01-07T07:55:57;100963.91;;;4.67;73.97
4981;BME280;2507;50.392;7.482;2024-01-07T07:58:22;100972.28;;;4.73;73.68
4981;BME280;2507;50.392;7.482;2024-01-07T08:00:48;100967.00;;;4.76;73.46
4981;BME280;2507;50.392;7.482;2024-01-07T08:03:13;100964.50;;;4.73;74.17
4981;BME280;2507;50.392;7.482;2024-01-07T08:05:38;100974.88;;;4.73;73.77
4981;BME280;2507;50.392;7.482;2024-01-07T08:08:05;100978.47;;;4.71;73.82
4981;BME280;2507;50.392;7.482;2024-01-07T08:10:31;100974.00;;;4.74;73.98
4981;BME280;2507;50.392;7.482;2024-01-07T08:12:57;100981.31;;;4.65;74.27
4981;BME280;2507;50.392;7.482;2024-01-07T08:15:23;100982.22;;;4.64;74.35
4981;BME280;2507;50.392;7.482;2024-01-07T08:17:48;100984.69;;;4.67;74.37
4981;BME280;2507;50.392;7.482;2024-01-07T08:20:14;100989.13;;;4.65;74.22
4981;BME280;2507;50.392;7.482;2024-01-07T08:22:39;100999.44;;;4.66;74.08
4981;BME280;2507;50.392;7.482;2024-01-07T08:25:04;100995.03;;;4.68;74.52
4981;BME280;2507;50.392;7.482;2024-01-07T08:27:30;100997.31;;;4.76;74.30
4981;BME280;2507;50.392;7.482;2024-01-07T08:29:57;101001.59;;;4.77;74.03
4981;BME280;2507;50.392;7.482;2024-01-07T08:32:22;101007.72;;;4.76;73.76
4981;BME280;2507;50.392;7.482;2024-01-07T08:34:49;101005.06;;;4.77;74.31
4981;BME280;2507;50.392;7.482;2024-01-07T08:37:14;100998.91;;;4.80;73.66
4981;BME280;2507;50.392;7.482;2024-01-07T08:39:39;101007.34;;;4.85;74.10
4981;BME280;2507;50.392;7.482;2024-01-07T08:42:05;101010.00;;;4.83;73.70
4981;BME280;2507;50.392;7.482;2024-01-07T08:44:30;101010.25;;;4.77;74.49
4981;BME280;2507;50.392;7.482;2024-01-07T08:46:55;101007.88;;;4.71;74.40
4981;BME280;2507;50.392;7.482;2024-01-07T08:49:21;101016.47;;;4.73;74.87
4981;BME280;2507;50.392;7.482;2024-01-07T08:51:46;101008.81;;;4.70;74.52
4981;BME280;2507;50.392;7.482;2024-01-07T08:54:11;101023.47;;;4.71;75.13
4981;BME280;2507;50.392;7.482;2024-01-07T08:56:36;101021.88;;;4.69;75.19
4981;BME280;2507;50.392;7.482;2024-01-07T08:59:02;101023.03;;;4.62;75.58
4981;BME280;2507;50.392;7.482;2024-01-07T09:01:29;101019.56;;;4.61;75.92
4981;BME280;2507;50.392;7.482;2024-01-07T09:03:54;101027.31;;;4.63;76.06
4981;BME280;2507;50.392;7.482;2024-01-07T09:06:19;101026.22;;;4.68;75.49
4981;BME280;2507;50.392;7.482;2024-01-07T09:08:45;101033.00;;;4.72;75.72
4981;BME280;2507;50.392;7.482;2024-01-07T09:11:10;101029.03;;;4.84;75.68
4981;BME280;2507;50.392;7.482;2024-01-07T09:13:37;101034.78;;;4.92;74.52
4981;BME280;2507;50.392;7.482;2024-01-07T09:16:03;101037.53;;;4.89;74.68
4981;BME280;2507;50.392;7.482;2024-01-07T09:18:28;101041.94;;;4.87;74.50
4981;BME280;2507;50.392;7.482;2024-01-07T09:20:53;101042.00;;;4.85;75.08
4981;BME280;2507;50.392;7.482;2024-01-07T09:23:18;101051.59;;;4.83;75.14
4981;BME280;2507;50.392;7.482;2024-01-07T09:25:44;101056.81;;;4.83;74.93
4981;BME280;2507;50.392;7.482;2024-01-07T09:28:11;101065.50;;;4.82;75.01
4981;BME280;2507;50.392;7.482;2024-01-07T09:30:36;101065.19;;;4.90;75.33
4981;BME280;2507;50.392;7.482;2024-01-07T09:33:01;101061.00;;;4.86;74.63
4981;BME280;2507;50.392;7.482;2024-01-07T09:35:27;101065.44;;;4.84;75.09
4981;BME280;2507;50.392;7.482;2024-01-07T09:37:52;101078.31;;;4.87;75.20
4981;BME280;2507;50.392;7.482;2024-01-07T09:40:18;101077.34;;;4.89;75.06
4981;BME280;2507;50.392;7.482;2024-01-07T09:42:44;101073.84;;;4.90;75.52
4981;BME280;2507;50.392;7.482;2024-01-07T09:45:12;101079.78;;;4.94;74.88
4981;BME280;2507;50.392;7.482;2024-01-07T09:47:38;101082.31;;;4.95;74.71
4981;BME280;2507;50.392;7.482;2024-01-07T09:50:05;101086.66;;;4.95;74.17
4981;BME280;2507;50.392;7.482;2024-01-07T09:52:32;101089.97;;;4.98;74.09
4981;BME280;2507;50.392;7.482;2024-01-07T09:54:58;101084.78;;;4.98;73.99
4981;BME280;2507;50.392;7.482;2024-01-07T09:57:25;101086.78;;;4.92;74.26
4981;BME280;2507;50.392;7.482;2024-01-07T09:59:50;101088.22;;;4.99;74.27
4981;BME280;2507;50.392;7.482;2024-01-07T10:02:16;101097.03;;;4.95;74.60
4981;BME280;2507;50.392;7.482;2024-01-07T10:04:41;101099.84;;;4.90;74.67
4981;BME280;2507;50.392;7.482;2024-01-07T10:07:07;101098.34;;;4.85;74.63
4981;BME280;2507;50.392;7.482;2024-01-07T10:09:33;101097.59;;;4.81;74.64
4981;BME280;2507;50.392;7.482;2024-01-07T10:11:59;101106.84;;;4.88;74.48
4981;BME280;2507;50.392;7.482;2024-01-07T10:14:24;101100.94;;;4.85;74.62
4981;BME280;2507;50.392;7.482;2024-01-07T10:16:51;101105.16;;;4.87;74.57
4981;BME280;2507;50.392;7.482;2024-01-07T10:19:21;101108.22;;;4.97;74.47
4981;BME280;2507;50.392;7.482;2024-01-07T10:21:46;101101.34;;;4.96;75.12
4981;BME280;2507;50.392;7.482;2024-01-07T10:24:13;101104.03;;;4.94;75.26
4981;BME280;2507;50.392;7.482;2024-01-07T10:26:41;101111.69;;;4.97;75.49
4981;BME280;2507;50.392;7.482;2024-01-07T10:29:07;101100.34;;;5.00;75.24
4981;BME280;2507;50.392;7.482;2024-01-07T10:31:37;101100.19;;;5.03;75.11
4981;BME280;2507;50.392;7.482;2024-01-07T10:34:07;101092.34;;;5.04;75.39
4981;BME280;2507;50.392;7.482;2024-01-07T10:36:32;101101.72;;;5.08;74.75
4981;BME280;2507;50.392;7.482;2024-01-07T10:38:57;101095.59;;;5.09;74.87
4981;BME280;2507;50.392;7.482;2024-01-07T10:41:23;101094.97;;;5.25;74.73
4981;BME280;2507;50.392;7.482;2024-01-07T10:43:50;101099.16;;;5.29;74.59
4981;BME280;2507;50.392;7.482;2024-01-07T10:46:16;101102.56;;;5.29;73.96
4981;BME280;2507;50.392;7.482;2024-01-07T10:48:51;101100.09;;;5.26;73.82
4981;BME280;2507;50.392;7.482;2024-01-07T10:51:20;101097.50;;;5.26;73.88
4981;BME280;2507;50.392;7.482;2024-01-07T10:53:51;101096.53;;;5.29;74.30
4981;BME280;2507;50.392;7.482;2024-01-07T10:56:22;101105.97;;;5.31;74.22
4981;BME280;2507;50.392;7.482;2024-01-07T10:58:51;101105.00;;;5.34;74.20
4981;BME280;2507;50.392;7.482;2024-01-07T11:01:17;101104.22;;;5.52;74.10
4981;BME280;2507;50.392;7.482;2024-01-07T11:03:50;101104.22;;;5.52;73.68
4981;BME280;2507;50.392;7.482;2024-01-07T11:06:33;101112.19;;;5.49;73.52
4981;BME280;2507;50.392;7.482;2024-01-07T11:11:40;101104.44;;;5.47;73.52
4981;BME280;2507;50.392;7.482;2024-01-07T11:14:33;101108.47;;;5.54;73.45
4981;BME280;2507;50.392;7.482;2024-01-07T11:16:59;101109.44;;;5.52;73.58
4981;BME280;2507;50.392;7.482;2024-01-07T11:19:25;101104.75;;;5.40;73.15
4981;BME280;2507;50.392;7.482;2024-01-07T11:21:51;101109.81;;;5.43;72.52
4981;BME280;2507;50.392;7.482;2024-01-07T11:24:38;101113.72;;;5.53;71.26
4981;BME280;2507;50.392;7.482;2024-01-07T11:27:03;101116.31;;;5.53;70.73
4981;BME280;2507;50.392;7.482;2024-01-07T11:29:31;101120.00;;;5.49;70.13
4981;BME280;2507;50.392;7.482;2024-01-07T11:31:56;101120.56;;;5.55;70.58
4981;BME280;2507;50.392;7.482;2024-01-07T11:34:41;101115.28;;;5.57;69.44
4981;BME280;2507;50.392;7.482;2024-01-07T11:37:13;101115.56;;;5.51;70.17
4981;BME280;2507;50.392;7.482;2024-01-07T11:39:48;101124.13;;;5.53;70.45
4981;BME280;2507;50.392;7.482;2024-01-07T11:42:14;101120.63;;;5.54;70.96
4981;BME280;2507;50.392;7.482;2024-01-07T11:44:51;101123.25;;;5.54;71.19
4981;BME280;2507;50.392;7.482;2024-01-07T11:47:17;101122.28;;;5.56;68.66
4981;BME280;2507;50.392;7.482;2024-01-07T11:49:43;101121.41;;;5.56;67.36
4981;BME280;2507;50.392;7.482;2024-01-07T11:52:08;101128.00;;;5.64;66.74
4981;BME280;2507;50.392;7.482;2024-01-07T11:54:35;101125.19;;;5.69;66.76
4981;BME280;2507;50.392;7.482;2024-01-07T11:57:01;101123.38;;;5.71;67.20
4981;BME280;2507;50.392;7.482;2024-01-07T11:59:26;101113.19;;;5.86;65.15
4981;BME280;2507;50.392;7.482;2024-01-07T12:01:51;101122.88;;;5.83;66.05
4981;BME280;2507;50.392;7.482;2024-01-07T12:04:16;101123.28;;;5.94;65.44
4981;BME280;2507;50.392;7.482;2024-01-07T12:06:42;101119.16;;;5.88;65.05
4981;BME280;2507;50.392;7.482;2024-01-07T12:09:07;101123.81;;;5.80;64.08
4981;BME280;2507;50.392;7.482;2024-01-07T12:11:32;101125.53;;;5.81;64.47
4981;BME280;2507;50.392;7.482;2024-01-07T12:13:59;101120.63;;;5.74;63.55
4981;BME280;2507;50.392;7.482;2024-01-07T12:16:25;101119.78;;;5.73;64.61
4981;BME280;2507;50.392;7.482;2024-01-07T12:18:50;101124.28;;;5.70;63.46
4981;BME280;2507;50.392;7.482;2024-01-07T12:21:19;101131.38;;;5.66;63.40
4981;BME280;2507;50.392;7.482;2024-01-07T12:23:49;101131.13;;;5.72;63.45
4981;BME280;2507;50.392;7.482;2024-01-07T12:26:17;101131.19;;;5.71;64.03
4981;BME280;2507;50.392;7.482;2024-01-07T12:28:44;101139.00;;;5.71;63.09
4981;BME280;2507;50.392;7.482;2024-01-07T12:31:10;101131.31;;;5.68;62.89
4981;BME280;2507;50.392;7.482;2024-01-07T12:33:39;101133.91;;;5.68;63.27
4981;BME280;2507;50.392;7.482;2024-01-07T12:36:06;101128.69;;;5.68;62.76
4981;BME280;2507;50.392;7.482;2024-01-07T12:38:32;101130.72;;;5.61;62.15
4981;BME280;2507;50.392;7.482;2024-01-07T12:40:57;101133.19;;;5.64;62.31
4981;BME280;2507;50.392;7.482;2024-01-07T12:43:22;101142.75;;;5.64;61.83
4981;BME280;2507;50.392;7.482;2024-01-07T12:45:48;101138.59;;;5.60;62.46
4981;BME280;2507;50.392;7.482;2024-01-07T12:48:14;101144.38;;;5.66;61.86
4981;BME280;2507;50.392;7.482;2024-01-07T12:50:39;101142.72;;;5.65;61.29
4981;BME280;2507;50.392;7.482;2024-01-07T12:53:04;101140.16;;;5.64;60.74
4981;BME280;2507;50.392;7.482;2024-01-07T12:55:31;101145.88;;;5.72;60.78
4981;BME280;2507;50.392;7.482;2024-01-07T12:57:56;101145.97;;;5.70;60.62
4981;BME280;2507;50.392;7.482;2024-01-07T13:00:23;101144.97;;;5.73;60.56
4981;BME280;2507;50.392;7.482;2024-01-07T13:02:49;101148.41;;;5.73;60.64
4981;BME280;2507;50.392;7.482;2024-01-07T13:05:14;101149.91;;;5.79;60.71
4981;BME280;2507;50.392;7.482;2024-01-07T13:07:40;101162.06;;;5.80;60.09
4981;BME280;2507;50.392;7.482;2024-01-07T13:10:05;101157.09;;;5.74;59.97
4981;BME280;2507;50.392;7.482;2024-01-07T13:12:31;101153.44;;;5.78;60.02
4981;BME280;2507;50.392;7.482;2024-01-07T13:14:56;101160.56;;;5.74;60.06
4981;BME280;2507;50.392;7.482;2024-01-07T13:17:21;101155.38;;;5.73;60.22